sensor_id;sensor_type;location;lat;lon;timestamp;P1;durP1;ratioP1;P2;durP2;ratioP2
291;SDS011;23311;48.776;9.162;2023-04-24T00:01:05;1.87;;;0.93;;
291;SDS011;23311;48.776;9.162;2023-04-24T00:03:35;2.27;;;1.00;;
291;SDS011;23311;48.776;9.162;2023-04-24T00:06:05;2.23;;;0.87;;
291;SDS011;23311;48.776;9.162;2023-04-24T00:08:34;3.50;;;1.43;;
291;SDS011;23311;48.776;9.162;2023-04-24T00:11:02;2.67;;;0.97;;
291;SDS011;23311;48.776;9.162;2023-04-24T00:13:31;2.30;;;0.80;;
291;SDS011;23311;48.776;9.162;2023-04-24T00:15:59;2.73;;;0.70;;
291;SDS011;23311;48.776;9.162;2023-04-24T00:18:27;1.43;;;0.80;;
291;SDS011;23311;48.776;9.162;2023-04-24T00:20:56;1.10;;;0.60;;
291;SDS011;23311;48.776;9.162;2023-04-24T00:23:25;1.77;;;0.80;;
291;SDS011;23311;48.776;9.162;2023-04-24T00:25:53;1.93;;;0.70;;
291;SDS011;23311;48.776;9.162;2023-04-24T00:28:21;3.13;;;1.03;;
291;SDS011;23311;48.776;9.162;2023-04-24T00:30:49;2.17;;;0.60;;
291;SDS011;23311;48.776;9.162;2023-04-24T00:33:17;1.30;;;0.50;;
291;SDS011;23311;48.776;9.162;2023-04-24T00:35:45;1.20;;;0.70;;
291;SDS011;23311;48.776;9.162;2023-04-24T00:38:14;1.23;;;0.70;;
291;SDS011;23311;48.776;9.162;2023-04-24T00:40:42;2.13;;;0.60;;
291;SDS011;23311;48.776;9.162;2023-04-24T00:43:11;1.13;;;0.77;;
291;SDS011;23311;48.776;9.162;2023-04-24T00:45:39;1.57;;;0.70;;
291;SDS011;23311;48.776;9.162;2023-04-24T00:48:07;2.77;;;1.00;;
291;SDS011;23311;48.776;9.162;2023-04-24T00:50:36;1.00;;;0.57;;
291;SDS011;23311;48.776;9.162;2023-04-24T00:53:05;2.30;;;0.67;;
291;SDS011;23311;48.776;9.162;2023-04-24T00:55:34;3.43;;;1.17;;
291;SDS011;23311;48.776;9.162;2023-04-24T00:58:04;0.93;;;0.53;;
291;SDS011;23311;48.776;9.162;2023-04-24T01:00:32;2.37;;;0.80;;
291;SDS011;23311;48.776;9.162;2023-04-24T01:03:00;1.67;;;0.60;;
291;SDS011;23311;48.776;9.162;2023-04-24T01:05:32;2.40;;;0.87;;
291;SDS011;23311;48.776;9.162;2023-04-24T01:08:01;1.30;;;0.80;;
291;SDS011;23311;48.776;9.162;2023-04-24T01:10:29;2.00;;;0.60;;
291;SDS011;23311;48.776;9.162;2023-04-24T01:13:01;2.30;;;1.13;;
291;SDS011;23311;48.776;9.162;2023-04-24T01:15:29;1.50;;;0.80;;
291;SDS011;23311;48.776;9.162;2023-04-24T01:17:57;2.10;;;0.90;;
291;SDS011;23311;48.776;9.162;2023-04-24T01:20:25;1.00;;;0.57;;
291;SDS011;23311;48.776;9.162;2023-04-24T01:22:56;1.37;;;0.63;;
291;SDS011;23311;48.776;9.162;2023-04-24T01:25:24;1.27;;;0.50;;
291;SDS011;23311;48.776;9.162;2023-04-24T01:27:54;1.57;;;0.80;;
291;SDS011;23311;48.776;9.162;2023-04-24T01:30:23;1.50;;;0.87;;
291;SDS011;23311;48.776;9.162;2023-04-24T01:32:52;1.67;;;1.00;;
291;SDS011;23311;48.776;9.162;2023-04-24T01:35:21;1.40;;;0.70;;
291;SDS011;23311;48.776;9.162;2023-04-24T01:37:49;1.87;;;1.40;;
291;SDS011;23311;48.776;9.162;2023-04-24T01:40:18;4.50;;;0.90;;
291;SDS011;23311;48.776;9.162;2023-04-24T01:42:46;1.00;;;0.60;;
291;SDS011;23311;48.776;9.162;2023-04-24T01:45:15;1.20;;;0.80;;
291;SDS011;23311;48.776;9.162;2023-04-24T01:47:43;2.00;;;0.83;;
291;SDS011;23311;48.776;9.162;2023-04-24T01:50:12;1.20;;;0.70;;
291;SDS011;23311;48.776;9.162;2023-04-24T01:52:40;1.10;;;0.83;;
291;SDS011;23311;48.776;9.162;2023-04-24T01:55:09;1.83;;;0.77;;
291;SDS011;23311;48.776;9.162;2023-04-24T01:57:39;1.20;;;0.70;;
291;SDS011;23311;48.776;9.162;2023-04-24T02:00:07;2.40;;;0.80;;
291;SDS011;23311;48.776;9.162;2023-04-24T02:02:38;1.23;;;0.80;;
291;SDS011;23311;48.776;9.162;2023-04-24T02:05:09;3.63;;;0.70;;
291;SDS011;23311;48.776;9.162;2023-04-24T02:07:37;1.30;;;0.53;;
291;SDS011;23311;48.776;9.162;2023-04-24T02:10:06;2.30;;;0.97;;
291;SDS011;23311;48.776;9.162;2023-04-24T02:12:35;2.27;;;0.90;;
291;SDS011;23311;48.776;9.162;2023-04-24T02:15:05;2.90;;;0.80;;
291;SDS011;23311;48.776;9.162;2023-04-24T02:17:33;1.40;;;0.80;;
291;SDS011;23311;48.776;9.162;2023-04-24T02:20:02;1.10;;;0.83;;
291;SDS011;23311;48.776;9.162;2023-04-24T02:22:31;0.90;;;0.60;;
291;SDS011;23311;48.776;9.162;2023-04-24T02:24:59;2.60;;;0.70;;
291;SDS011;23311;48.776;9.162;2023-04-24T02:27:28;1.17;;;0.63;;
291;SDS011;23311;48.776;9.162;2023-04-24T02:29:56;2.30;;;0.97;;
291;SDS011;23311;48.776;9.162;2023-04-24T02:32:25;0.90;;;0.60;;
291;SDS011;23311;48.776;9.162;2023-04-24T02:34:53;2.20;;;0.90;;
291;SDS011;23311;48.776;9.162;2023-04-24T02:37:21;2.70;;;0.73;;
291;SDS011;23311;48.776;9.162;2023-04-24T02:39:49;1.63;;;1.10;;
291;SDS011;23311;48.776;9.162;2023-04-24T02:42:18;2.27;;;0.80;;
291;SDS011;23311;48.776;9.162;2023-04-24T02:44:46;1.93;;;0.90;;
291;SDS011;23311;48.776;9.162;2023-04-24T02:47:14;1.40;;;0.80;;
291;SDS011;23311;48.776;9.162;2023-04-24T02:49:43;1.40;;;0.90;;
291;SDS011;23311;48.776;9.162;2023-04-24T02:52:11;1.90;;;1.00;;
291;SDS011;23311;48.776;9.162;2023-04-24T02:54:39;2.20;;;1.00;;
291;SDS011;23311;48.776;9.162;2023-04-24T02:57:07;1.30;;;0.70;;
291;SDS011;23311;48.776;9.162;2023-04-24T02:59:35;2.70;;;1.13;;
291;SDS011;23311;48.776;9.162;2023-04-24T03:02:03;2.00;;;1.20;;
291;SDS011;23311;48.776;9.162;2023-04-24T03:04:32;1.93;;;1.30;;
291;SDS011;23311;48.776;9.162;2023-04-24T03:07:01;1.80;;;1.10;;
291;SDS011;23311;48.776;9.162;2023-04-24T03:09:30;1.30;;;0.87;;
291;SDS011;23311;48.776;9.162;2023-04-24T03:11:58;1.80;;;1.00;;
291;SDS011;23311;48.776;9.162;2023-04-24T03:14:26;1.60;;;1.50;;
291;SDS011;23311;48.776;9.162;2023-04-24T03:16:57;2.17;;;1.00;;
291;SDS011;23311;48.776;9.162;2023-04-24T03:19:26;1.83;;;1.30;;
291;SDS011;23311;48.776;9.162;2023-04-24T03:21:54;2.10;;;0.97;;
291;SDS011;23311;48.776;9.162;2023-04-24T03:24:23;1.47;;;1.13;;
291;SDS011;23311;48.776;9.162;2023-04-24T03:26:54;1.90;;;1.00;;
291;SDS011;23311;48.776;9.162;2023-04-24T03:29:23;1.90;;;0.80;;
291;SDS011;23311;48.776;9.162;2023-04-24T03:31:51;2.50;;;1.00;;
291;SDS011;23311;48.776;9.162;2023-04-24T03:34:19;1.40;;;0.80;;
291;SDS011;23311;48.776;9.162;2023-04-24T03:36:47;1.83;;;0.97;;
291;SDS011;23311;48.776;9.162;2023-04-24T03:39:15;2.10;;;0.93;;
291;SDS011;23311;48.776;9.162;2023-04-24T03:41:44;2.63;;;1.00;;
291;SDS011;23311;48.776;9.162;2023-04-24T03:44:12;2.20;;;1.00;;
291;SDS011;23311;48.776;9.162;2023-04-24T03:46:41;1.27;;;0.90;;
291;SDS011;23311;48.776;9.162;2023-04-24T03:49:09;2.43;;;1.53;;
291;SDS011;23311;48.776;9.162;2023-04-24T03:51:37;2.20;;;1.00;;
291;SDS011;23311;48.776;9.162;2023-04-24T03:54:05;1.80;;;1.20;;
291;SDS011;23311;48.776;9.162;2023-04-24T03:56:33;2.03;;;0.90;;
291;SDS011;23311;48.776;9.162;2023-04-24T03:59:03;2.10;;;1.23;;
291;SDS011;23311;48.776;9.162;2023-04-24T04:01:31;1.50;;;0.87;;
291;SDS011;23311;48.776;9.162;2023-04-24T04:04:02;2.23;;;0.90;;
291;SDS011;23311;48.776;9.162;2023-04-24T04:06:31;1.73;;;1.10;;
291;SDS011;23311;48.776;9.162;2023-04-24T04:08:59;3.10;;;1.30;;
291;SDS011;23311;48.776;9.162;2023-04-24T04:11:27;1.50;;;1.00;;
291;SDS011;23311;48.776;9.162;2023-04-24T04:13:56;4.13;;;1.10;;
291;SDS011;23311;48.776;9.162;2023-04-24T04:16:25;1.40;;;0.90;;
291;SDS011;23311;48.776;9.162;2023-04-24T04:18:53;1.57;;;1.00;;
291;SDS011;23311;48.776;9.162;2023-04-24T04:21:22;1.33;;;0.80;;
291;SDS011;23311;48.776;9.162;2023-04-24T04:23:50;1.77;;;0.70;;
291;SDS011;23311;48.776;9.162;2023-04-24T04:26:18;2.17;;;1.43;;
291;SDS011;23311;48.776;9.162;2023-04-24T04:28:47;2.87;;;1.03;;
291;SDS011;23311;48.776;9.162;2023-04-24T04:31:16;1.20;;;0.70;;
291;SDS011;23311;48.776;9.162;2023-04-24T04:33:45;1.30;;;0.83;;
291;SDS011;23311;48.776;9.162;2023-04-24T04:36:13;2.07;;;1.40;;
291;SDS011;23311;48.776;9.162;2023-04-24T04:38:43;4.20;;;1.90;;
291;SDS011;23311;48.776;9.162;2023-04-24T04:41:11;3.13;;;1.33;;
291;SDS011;23311;48.776;9.162;2023-04-24T04:43:39;2.20;;;0.70;;
291;SDS011;23311;48.776;9.162;2023-04-24T04:46:09;1.90;;;0.87;;
291;SDS011;23311;48.776;9.162;2023-04-24T04:48:37;3.00;;;1.20;;
291;SDS011;23311;48.776;9.162;2023-04-24T04:51:07;1.23;;;0.80;;
291;SDS011;23311;48.776;9.162;2023-04-24T04:53:35;1.50;;;1.17;;
291;SDS011;23311;48.776;9.162;2023-04-24T04:56:03;2.70;;;1.70;;
291;SDS011;23311;48.776;9.162;2023-04-24T04:58:32;2.13;;;1.20;;
291;SDS011;23311;48.776;9.162;2023-04-24T05:01:00;3.30;;;1.73;;
291;SDS011;23311;48.776;9.162;2023-04-24T05:03:28;2.13;;;1.53;;
291;SDS011;23311;48.776;9.162;2023-04-24T05:05:57;1.80;;;1.37;;
291;SDS011;23311;48.776;9.162;2023-04-24T05:08:26;1.83;;;1.10;;
291;SDS011;23311;48.776;9.162;2023-04-24T05:10:54;1.77;;;1.57;;
291;SDS011;23311;48.776;9.162;2023-04-24T05:13:23;1.70;;;1.27;;
291;SDS011;23311;48.776;9.162;2023-04-24T05:16:04;2.50;;;1.20;;
291;SDS011;23311;48.776;9.162;2023-04-24T05:18:33;2.90;;;1.47;;
291;SDS011;23311;48.776;9.162;2023-04-24T05:21:01;3.30;;;1.30;;
291;SDS011;23311;48.776;9.162;2023-04-24T05:23:31;1.80;;;1.23;;
291;SDS011;23311;48.776;9.162;2023-04-24T05:25:59;1.70;;;1.23;;
291;SDS011;23311;48.776;9.162;2023-04-24T05:28:27;1.97;;;1.30;;
291;SDS011;23311;48.776;9.162;2023-04-24T05:30:55;1.57;;;1.17;;
291;SDS011;23311;48.776;9.162;2023-04-24T05:33:23;2.03;;;1.40;;
291;SDS011;23311;48.776;9.162;2023-04-24T05:35:51;1.70;;;1.13;;
291;SDS011;23311;48.776;9.162;2023-04-24T05:38:19;1.50;;;1.17;;
291;SDS011;23311;48.776;9.162;2023-04-24T05:40:48;1.80;;;1.20;;
291;SDS011;23311;48.776;9.162;2023-04-24T05:43:16;2.60;;;1.50;;
291;SDS011;23311;48.776;9.162;2023-04-24T05:45:44;1.47;;;1.40;;
291;SDS011;23311;48.776;9.162;2023-04-24T05:48:12;3.90;;;1.87;;
291;SDS011;23311;48.776;9.162;2023-04-24T05:50:41;2.27;;;1.20;;
291;SDS011;23311;48.776;9.162;2023-04-24T05:53:09;4.03;;;2.00;;
291;SDS011;23311;48.776;9.162;2023-04-24T05:55:37;2.37;;;1.20;;
291;SDS011;23311;48.776;9.162;2023-04-24T05:58:07;2.60;;;1.33;;
291;SDS011;23311;48.776;9.162;2023-04-24T06:00:35;2.20;;;1.57;;
291;SDS011;23311;48.776;9.162;2023-04-24T06:03:04;2.83;;;1.57;;
291;SDS011;23311;48.776;9.162;2023-04-24T06:05:32;2.30;;;1.50;;
291;SDS011;23311;48.776;9.162;2023-04-24T06:08:01;1.77;;;1.70;;
291;SDS011;23311;48.776;9.162;2023-04-24T06:10:29;1.70;;;1.33;;
291;SDS011;23311;48.776;9.162;2023-04-24T06:12:57;2.07;;;1.17;;
291;SDS011;23311;48.776;9.162;2023-04-24T06:15:29;2.37;;;1.57;;
291;SDS011;23311;48.776;9.162;2023-04-24T06:17:57;2.93;;;1.73;;
291;SDS011;23311;48.776;9.162;2023-04-24T06:20:26;2.30;;;1.57;;
291;SDS011;23311;48.776;9.162;2023-04-24T06:22:54;4.17;;;1.80;;
291;SDS011;23311;48.776;9.162;2023-04-24T06:25:24;3.60;;;1.60;;
291;SDS011;23311;48.776;9.162;2023-04-24T06:27:52;2.23;;;1.50;;
291;SDS011;23311;48.776;9.162;2023-04-24T06:30:20;2.60;;;1.60;;
291;SDS011;23311;48.776;9.162;2023-04-24T06:32:50;2.77;;;1.70;;
291;SDS011;23311;48.776;9.162;2023-04-24T06:35:18;3.60;;;1.47;;
291;SDS011;23311;48.776;9.162;2023-04-24T06:37:46;2.00;;;1.43;;
291;SDS011;23311;48.776;9.162;2023-04-24T06:40:14;2.00;;;1.47;;
291;SDS011;23311;48.776;9.162;2023-04-24T06:42:44;3.20;;;1.67;;
291;SDS011;23311;48.776;9.162;2023-04-24T06:45:12;2.20;;;1.70;;
291;SDS011;23311;48.776;9.162;2023-04-24T06:47:41;2.40;;;1.53;;
291;SDS011;23311;48.776;9.162;2023-04-24T06:50:10;2.10;;;1.13;;
291;SDS011;23311;48.776;9.162;2023-04-24T06:52:38;2.13;;;1.50;;
291;SDS011;23311;48.776;9.162;2023-04-24T06:55:07;2.53;;;1.23;;
291;SDS011;23311;48.776;9.162;2023-04-24T06:57:37;1.90;;;1.40;;
291;SDS011;23311;48.776;9.162;2023-04-24T07:00:05;1.90;;;1.40;;
291;SDS011;23311;48.776;9.162;2023-04-24T07:02:35;2.10;;;1.20;;
291;SDS011;23311;48.776;9.162;2023-04-24T07:05:04;1.50;;;1.10;;
291;SDS011;23311;48.776;9.162;2023-04-24T07:07:34;3.03;;;1.70;;
291;SDS011;23311;48.776;9.162;2023-04-24T07:10:04;3.30;;;2.27;;
291;SDS011;23311;48.776;9.162;2023-04-24T07:12:33;3.37;;;1.80;;
291;SDS011;23311;48.776;9.162;2023-04-24T07:15:02;2.40;;;1.63;;
291;SDS011;23311;48.776;9.162;2023-04-24T07:17:30;1.40;;;1.33;;
291;SDS011;23311;48.776;9.162;2023-04-24T07:19:58;1.83;;;1.47;;
291;SDS011;23311;48.776;9.162;2023-04-24T07:22:26;5.23;;;2.00;;
291;SDS011;23311;48.776;9.162;2023-04-24T07:24:56;1.80;;;1.50;;
291;SDS011;23311;48.776;9.162;2023-04-24T07:27:24;1.60;;;1.40;;
291;SDS011;23311;48.776;9.162;2023-04-24T07:29:53;2.03;;;1.40;;
291;SDS011;23311;48.776;9.162;2023-04-24T07:32:20;3.07;;;1.60;;
291;SDS011;23311;48.776;9.162;2023-04-24T07:34:48;1.93;;;1.30;;
291;SDS011;23311;48.776;9.162;2023-04-24T07:37:17;1.33;;;1.20;;
291;SDS011;23311;48.776;9.162;2023-04-24T07:39:45;3.23;;;1.57;;
291;SDS011;23311;48.776;9.162;2023-04-24T07:42:14;6.73;;;2.27;;
291;SDS011;23311;48.776;9.162;2023-04-24T07:44:42;2.17;;;1.17;;
291;SDS011;23311;48.776;9.162;2023-04-24T07:47:10;1.43;;;1.10;;
291;SDS011;23311;48.776;9.162;2023-04-24T07:49:38;4.20;;;1.83;;
291;SDS011;23311;48.776;9.162;2023-04-24T07:52:06;3.93;;;1.43;;
291;SDS011;23311;48.776;9.162;2023-04-24T07:54:34;1.80;;;1.57;;
291;SDS011;23311;48.776;9.162;2023-04-24T07:57:03;1.50;;;1.33;;
291;SDS011;23311;48.776;9.162;2023-04-24T07:59:34;1.83;;;1.60;;
291;SDS011;23311;48.776;9.162;2023-04-24T08:02:02;2.60;;;1.43;;
291;SDS011;23311;48.776;9.162;2023-04-24T08:04:30;2.57;;;1.63;;
291;SDS011;23311;48.776;9.162;2023-04-24T08:06:59;2.57;;;1.23;;
291;SDS011;23311;48.776;9.162;2023-04-24T08:09:27;2.20;;;1.40;;
291;SDS011;23311;48.776;9.162;2023-04-24T08:11:55;1.63;;;1.37;;
291;SDS011;23311;48.776;9.162;2023-04-24T08:14:23;2.50;;;1.17;;
291;SDS011;23311;48.776;9.162;2023-04-24T08:16:53;2.00;;;1.30;;
291;SDS011;23311;48.776;9.162;2023-04-24T08:19:22;4.57;;;1.63;;
291;SDS011;23311;48.776;9.162;2023-04-24T08:21:50;3.70;;;2.00;;
291;SDS011;23311;48.776;9.162;2023-04-24T08:24:18;4.23;;;1.30;;
291;SDS011;23311;48.776;9.162;2023-04-24T08:26:46;4.93;;;1.80;;
291;SDS011;23311;48.776;9.162;2023-04-24T08:29:16;1.30;;;1.20;;
291;SDS011;23311;48.776;9.162;2023-04-24T08:31:44;1.80;;;1.20;;
291;SDS011;23311;48.776;9.162;2023-04-24T08:34:14;3.53;;;1.50;;
291;SDS011;23311;48.776;9.162;2023-04-24T08:36:42;1.80;;;1.20;;
291;SDS011;23311;48.776;9.162;2023-04-24T08:39:13;2.53;;;1.30;;
291;SDS011;23311;48.776;9.162;2023-04-24T08:41:41;1.60;;;1.23;;
291;SDS011;23311;48.776;9.162;2023-04-24T08:44:11;2.70;;;1.27;;
291;SDS011;23311;48.776;9.162;2023-04-24T08:46:42;2.27;;;1.57;;
291;SDS011;23311;48.776;9.162;2023-04-24T08:49:11;2.23;;;1.60;;
291;SDS011;23311;48.776;9.162;2023-04-24T08:51:42;2.13;;;1.47;;
291;SDS011;23311;48.776;9.162;2023-04-24T08:54:11;2.13;;;1.43;;
291;SDS011;23311;48.776;9.162;2023-04-24T08:56:40;2.50;;;1.27;;
291;SDS011;23311;48.776;9.162;2023-04-24T08:59:11;2.87;;;1.37;;
291;SDS011;23311;48.776;9.162;2023-04-24T09:01:40;2.10;;;1.40;;
291;SDS011;23311;48.776;9.162;2023-04-24T09:04:09;1.93;;;1.13;;
291;SDS011;23311;48.776;9.162;2023-04-24T09:06:40;4.70;;;1.40;;
291;SDS011;23311;48.776;9.162;2023-04-24T09:09:08;2.37;;;1.50;;
291;SDS011;23311;48.776;9.162;2023-04-24T09:11:38;2.00;;;1.30;;
291;SDS011;23311;48.776;9.162;2023-04-24T09:14:06;2.17;;;1.63;;
291;SDS011;23311;48.776;9.162;2023-04-24T09:16:37;2.10;;;1.60;;
291;SDS011;23311;48.776;9.162;2023-04-24T09:19:05;3.67;;;1.50;;
291;SDS011;23311;48.776;9.162;2023-04-24T09:21:33;3.80;;;1.40;;
291;SDS011;23311;48.776;9.162;2023-04-24T09:24:06;2.40;;;1.43;;
291;SDS011;23311;48.776;9.162;2023-04-24T09:26:35;2.17;;;1.17;;
291;SDS011;23311;48.776;9.162;2023-04-24T09:29:04;1.70;;;1.20;;
291;SDS011;23311;48.776;9.162;2023-04-24T09:31:32;3.27;;;1.67;;
291;SDS011;23311;48.776;9.162;2023-04-24T09:34:01;2.13;;;1.50;;
291;SDS011;23311;48.776;9.162;2023-04-24T09:36:34;1.93;;;1.63;;
291;SDS011;23311;48.776;9.162;2023-04-24T09:39:06;1.70;;;1.50;;
291;SDS011;23311;48.776;9.162;2023-04-24T09:41:43;2.03;;;1.70;;
291;SDS011;23311;48.776;9.162;2023-04-24T09:44:12;1.80;;;1.30;;
291;SDS011;23311;48.776;9.162;2023-04-24T09:46:41;1.90;;;1.40;;
291;SDS011;23311;48.776;9.162;2023-04-24T09:49:12;2.53;;;1.43;;
291;SDS011;23311;48.776;9.162;2023-04-24T09:51:42;4.70;;;1.30;;
291;SDS011;23311;48.776;9.162;2023-04-24T09:54:14;1.40;;;1.10;;
291;SDS011;23311;48.776;9.162;2023-04-24T09:56:43;2.07;;;1.30;;
291;SDS011;23311;48.776;9.162;2023-04-24T09:59:12;1.87;;;1.00;;
291;SDS011;23311;48.776;9.162;2023-04-24T10:01:41;1.20;;;0.80;;
291;SDS011;23311;48.776;9.162;2023-04-24T10:04:15;1.70;;;1.60;;
291;SDS011;23311;48.776;9.162;2023-04-24T10:06:44;2.30;;;1.40;;
291;SDS011;23311;48.776;9.162;2023-04-24T10:09:14;1.37;;;1.00;;
291;SDS011;23311;48.776;9.162;2023-04-24T10:11:43;1.20;;;0.90;;
291;SDS011;23311;48.776;9.162;2023-04-24T10:14:13;1.77;;;1.00;;
291;SDS011;23311;48.776;9.162;2023-04-24T10:16:43;1.77;;;1.20;;
291;SDS011;23311;48.776;9.162;2023-04-24T10:19:13;1.40;;;1.00;;
291;SDS011;23311;48.776;9.162;2023-04-24T10:21:43;4.80;;;1.40;;
291;SDS011;23311;48.776;9.162;2023-04-24T10:24:13;1.43;;;1.10;;
291;SDS011;23311;48.776;9.162;2023-04-24T10:26:45;2.43;;;1.37;;
291;SDS011;23311;48.776;9.162;2023-04-24T10:29:17;1.60;;;1.07;;
291;SDS011;23311;48.776;9.162;2023-04-24T10:31:47;4.40;;;1.10;;
291;SDS011;23311;48.776;9.162;2023-04-24T10:34:16;1.67;;;1.20;;
291;SDS011;23311;48.776;9.162;2023-04-24T10:36:50;1.83;;;1.20;;
291;SDS011;23311;48.776;9.162;2023-04-24T10:39:24;2.20;;;1.03;;
291;SDS011;23311;48.776;9.162;2023-04-24T10:41:54;1.67;;;1.10;;
291;SDS011;23311;48.776;9.162;2023-04-24T10:44:24;1.83;;;1.10;;
291;SDS011;23311;48.776;9.162;2023-04-24T10:46:53;3.20;;;1.00;;
291;SDS011;23311;48.776;9.162;2023-04-24T10:49:27;1.80;;;0.93;;
291;SDS011;23311;48.776;9.162;2023-04-24T10:52:00;1.60;;;0.90;;
291;SDS011;23311;48.776;9.162;2023-04-24T10:54:36;1.73;;;1.10;;
291;SDS011;23311;48.776;9.162;2023-04-24T10:57:27;2.13;;;1.30;;
291;SDS011;23311;48.776;9.162;2023-04-24T11:00:11;2.73;;;1.20;;
291;SDS011;23311;48.776;9.162;2023-04-24T11:02:45;2.10;;;1.20;;
291;SDS011;23311;48.776;9.162;2023-04-24T11:05:17;1.73;;;1.00;;
291;SDS011;23311;48.776;9.162;2023-04-24T11:10:41;1.70;;;0.90;;
291;SDS011;23311;48.776;9.162;2023-04-24T11:13:14;4.33;;;1.40;;
291;SDS011;23311;48.776;9.162;2023-04-24T11:15:42;2.23;;;1.53;;
291;SDS011;23311;48.776;9.162;2023-04-24T11:18:13;1.30;;;1.10;;
291;SDS011;23311;48.776;9.162;2023-04-24T11:20:43;2.73;;;1.17;;
291;SDS011;23311;48.776;9.162;2023-04-24T11:23:12;1.80;;;1.00;;
291;SDS011;23311;48.776;9.162;2023-04-24T11:25:42;1.40;;;0.90;;
291;SDS011;23311;48.776;9.162;2023-04-24T11:28:14;2.27;;;1.20;;
291;SDS011;23311;48.776;9.162;2023-04-24T11:30:43;1.90;;;1.10;;
291;SDS011;23311;48.776;9.162;2023-04-24T11:33:11;2.83;;;1.23;;
291;SDS011;23311;48.776;9.162;2023-04-24T11:35:46;1.70;;;1.13;;
291;SDS011;23311;48.776;9.162;2023-04-24T11:38:15;1.50;;;1.33;;
291;SDS011;23311;48.776;9.162;2023-04-24T11:40:52;2.20;;;1.80;;
291;SDS011;23311;48.776;9.162;2023-04-24T11:43:21;1.87;;;1.17;;
291;SDS011;23311;48.776;9.162;2023-04-24T11:45:51;2.37;;;1.60;;
291;SDS011;23311;48.776;9.162;2023-04-24T11:48:19;3.20;;;1.30;;
291;SDS011;23311;48.776;9.162;2023-04-24T11:50:49;3.40;;;1.30;;
291;SDS011;23311;48.776;9.162;2023-04-24T11:53:18;1.53;;;1.00;;
291;SDS011;23311;48.776;9.162;2023-04-24T11:55:47;1.77;;;1.43;;
291;SDS011;23311;48.776;9.162;2023-04-24T11:58:17;1.60;;;1.10;;
291;SDS011;23311;48.776;9.162;2023-04-24T12:00:55;1.30;;;0.90;;
291;SDS011;23311;48.776;9.162;2023-04-24T12:03:24;2.43;;;1.17;;
291;SDS011;23311;48.776;9.162;2023-04-24T12:05:52;1.50;;;1.10;;
291;SDS011;23311;48.776;9.162;2023-04-24T12:08:31;2.00;;;1.07;;
291;SDS011;23311;48.776;9.162;2023-04-24T12:11:02;2.20;;;1.17;;
291;SDS011;23311;48.776;9.162;2023-04-24T12:13:34;2.40;;;1.30;;
291;SDS011;23311;48.776;9.162;2023-04-24T12:16:03;1.43;;;1.17;;
291;SDS011;23311;48.776;9.162;2023-04-24T12:18:32;2.20;;;1.10;;
291;SDS011;23311;48.776;9.162;2023-04-24T12:21:16;2.00;;;1.30;;
291;SDS011;23311;48.776;9.162;2023-04-24T12:23:48;1.87;;;1.20;;
291;SDS011;23311;48.776;9.162;2023-04-24T12:26:17;1.83;;;1.10;;
291;SDS011;23311;48.776;9.162;2023-04-24T12:28:48;1.97;;;0.93;;
291;SDS011;23311;48.776;9.162;2023-04-24T12:31:17;2.33;;;1.33;;
291;SDS011;23311;48.776;9.162;2023-04-24T12:33:45;2.40;;;1.50;;
291;SDS011;23311;48.776;9.162;2023-04-24T12:36:18;1.83;;;1.40;;
291;SDS011;23311;48.776;9.162;2023-04-24T12:38:52;1.83;;;1.00;;
291;SDS011;23311;48.776;9.162;2023-04-24T12:41:20;2.00;;;0.87;;
291;SDS011;23311;48.776;9.162;2023-04-24T12:43:53;2.47;;;1.47;;
291;SDS011;23311;48.776;9.162;2023-04-24T12:46:21;2.17;;;1.30;;
291;SDS011;23311;48.776;9.162;2023-04-24T12:48:50;1.83;;;1.30;;
291;SDS011;23311;48.776;9.162;2023-04-24T12:51:18;1.40;;;1.13;;
291;SDS011;23311;48.776;9.162;2023-04-24T12:53:46;2.43;;;1.40;;
291;SDS011;23311;48.776;9.162;2023-04-24T12:56:14;2.90;;;1.43;;
291;SDS011;23311;48.776;9.162;2023-04-24T12:58:43;2.37;;;1.20;;
291;SDS011;23311;48.776;9.162;2023-04-24T13:01:12;1.93;;;1.30;;
291;SDS011;23311;48.776;9.162;2023-04-24T13:03:41;1.57;;;1.03;;
291;SDS011;23311;48.776;9.162;2023-04-24T13:06:10;2.30;;;1.00;;
291;SDS011;23311;48.776;9.162;2023-04-24T13:08:38;1.87;;;1.30;;
291;SDS011;23311;48.776;9.162;2023-04-24T13:11:06;3.47;;;1.30;;
291;SDS011;23311;48.776;9.162;2023-04-24T13:13:34;2.07;;;1.20;;
291;SDS011;23311;48.776;9.162;2023-04-24T13:16:02;1.97;;;1.10;;
291;SDS011;23311;48.776;9.162;2023-04-24T13:18:32;2.60;;;1.43;;
291;SDS011;23311;48.776;9.162;2023-04-24T13:21:00;2.23;;;1.30;;
291;SDS011;23311;48.776;9.162;2023-04-24T13:23:28;2.20;;;1.13;;
291;SDS011;23311;48.776;9.162;2023-04-24T13:25:56;1.80;;;1.50;;
291;SDS011;23311;48.776;9.162;2023-04-24T13:28:25;1.27;;;0.93;;
291;SDS011;23311;48.776;9.162;2023-04-24T13:30:53;1.57;;;1.10;;
291;SDS011;23311;48.776;9.162;2023-04-24T13:33:21;1.77;;;1.20;;
291;SDS011;23311;48.776;9.162;2023-04-24T13:35:50;1.97;;;1.40;;
291;SDS011;23311;48.776;9.162;2023-04-24T13:38:18;2.13;;;1.50;;
291;SDS011;23311;48.776;9.162;2023-04-24T13:40:47;2.17;;;1.60;;
291;SDS011;23311;48.776;9.162;2023-04-24T13:43:15;2.30;;;1.57;;
291;SDS011;23311;48.776;9.162;2023-04-24T13:45:44;1.80;;;1.30;;
291;SDS011;23311;48.776;9.162;2023-04-24T13:48:12;9.23;;;2.13;;
291;SDS011;23311;48.776;9.162;2023-04-24T13:50:42;1.30;;;1.13;;
291;SDS011;23311;48.776;9.162;2023-04-24T13:53:11;2.17;;;1.30;;
291;SDS011;23311;48.776;9.162;2023-04-24T13:55:40;1.87;;;1.53;;
291;SDS011;23311;48.776;9.162;2023-04-24T13:58:08;2.30;;;1.37;;
291;SDS011;23311;48.776;9.162;2023-04-24T14:00:36;1.87;;;1.57;;
291;SDS011;23311;48.776;9.162;2023-04-24T14:03:04;2.80;;;1.73;;
291;SDS011;23311;48.776;9.162;2023-04-24T14:05:33;2.70;;;1.50;;
291;SDS011;23311;48.776;9.162;2023-04-24T14:08:04;2.30;;;1.60;;
291;SDS011;23311;48.776;9.162;2023-04-24T14:10:33;2.60;;;1.70;;
291;SDS011;23311;48.776;9.162;2023-04-24T14:13:01;1.97;;;1.60;;
291;SDS011;23311;48.776;9.162;2023-04-24T14:15:34;1.27;;;1.13;;
291;SDS011;23311;48.776;9.162;2023-04-24T14:18:03;1.80;;;1.43;;
291;SDS011;23311;48.776;9.162;2023-04-24T14:20:32;1.57;;;1.10;;
291;SDS011;23311;48.776;9.162;2023-04-24T14:23:00;1.67;;;1.40;;
291;SDS011;23311;48.776;9.162;2023-04-24T14:25:29;1.73;;;1.37;;
291;SDS011;23311;48.776;9.162;2023-04-24T14:27:58;1.90;;;1.40;;
291;SDS011;23311;48.776;9.162;2023-04-24T14:30:26;3.87;;;1.47;;
291;SDS011;23311;48.776;9.162;2023-04-24T14:32:54;2.63;;;1.40;;
291;SDS011;23311;48.776;9.162;2023-04-24T14:35:23;1.60;;;0.80;;
291;SDS011;23311;48.776;9.162;2023-04-24T14:37:53;1.67;;;1.17;;
291;SDS011;23311;48.776;9.162;2023-04-24T14:40:22;1.37;;;1.00;;
291;SDS011;23311;48.776;9.162;2023-04-24T14:43:11;1.87;;;1.00;;
291;SDS011;23311;48.776;9.162;2023-04-24T14:45:39;1.33;;;1.13;;
291;SDS011;23311;48.776;9.162;2023-04-24T14:48:07;2.47;;;1.47;;
291;SDS011;23311;48.776;9.162;2023-04-24T14:50:37;4.13;;;1.53;;
291;SDS011;23311;48.776;9.162;2023-04-24T14:53:06;3.63;;;1.83;;
291;SDS011;23311;48.776;9.162;2023-04-24T14:55:34;2.27;;;1.27;;
291;SDS011;23311;48.776;9.162;2023-04-24T14:58:02;2.20;;;1.50;;
291;SDS011;23311;48.776;9.162;2023-04-24T15:00:32;2.50;;;1.83;;
291;SDS011;23311;48.776;9.162;2023-04-24T15:03:01;2.90;;;1.93;;
291;SDS011;23311;48.776;9.162;2023-04-24T15:05:29;5.10;;;1.60;;
291;SDS011;23311;48.776;9.162;2023-04-24T15:07:57;2.90;;;1.63;;
291;SDS011;23311;48.776;9.162;2023-04-24T15:10:26;2.20;;;1.77;;
291;SDS011;23311;48.776;9.162;2023-04-24T15:12:55;2.03;;;1.50;;
291;SDS011;23311;48.776;9.162;2023-04-24T15:15:23;2.17;;;1.93;;
291;SDS011;23311;48.776;9.162;2023-04-24T15:17:53;2.10;;;1.47;;
291;SDS011;23311;48.776;9.162;2023-04-24T15:20:21;2.20;;;2.00;;
291;SDS011;23311;48.776;9.162;2023-04-24T15:22:49;2.67;;;1.60;;
291;SDS011;23311;48.776;9.162;2023-04-24T15:25:18;1.97;;;1.57;;
291;SDS011;23311;48.776;9.162;2023-04-24T15:27:46;2.03;;;1.80;;
291;SDS011;23311;48.776;9.162;2023-04-24T15:30:14;2.10;;;1.87;;